sensor_id;sensor_type;location;lat;lon;timestamp;temperature;humidity
69626;DHT22;56847;51.984;5.088;2023-04-25T00:00:16;8.80;85.10
69626;DHT22;56847;51.984;5.088;2023-04-25T00:02:49;8.80;85.10
69626;DHT22;56847;51.984;5.088;2023-04-25T00:05:16;8.80;85.00
69626;DHT22;56847;51.984;5.088;2023-04-25T00:07:44;8.80;84.80
69626;DHT22;56847;51.984;5.088;2023-04-25T00:10:12;8.70;84.90
69626;DHT22;56847;51.984;5.088;2023-04-25T00:12:42;8.70;84.80
69626;DHT22;56847;51.984;5.088;2023-04-25T00:15:10;8.70;84.90
69626;DHT22;56847;51.984;5.088;2023-04-25T00:17:38;8.70;85.00
69626;DHT22;56847;51.984;5.088;2023-04-25T00:20:06;8.60;84.90
69626;DHT22;56847;51.984;5.088;2023-04-25T00:22:36;8.60;84.80
69626;DHT22;56847;51.984;5.088;2023-04-25T00:25:07;8.60;84.90
69626;DHT22;56847;51.984;5.088;2023-04-25T00:27:34;8.60;84.90
69626;DHT22;56847;51.984;5.088;2023-04-25T00:30:01;8.60;84.80
69626;DHT22;56847;51.984;5.088;2023-04-25T00:32:30;8.60;84.80
69626;DHT22;56847;51.984;5.088;2023-04-25T00:34:58;8.60;85.10
69626;DHT22;56847;51.984;5.088;2023-04-25T00:37:25;8.60;85.30
69626;DHT22;56847;51.984;5.088;2023-04-25T00:39:52;8.60;85.10
69626;DHT22;56847;51.984;5.088;2023-04-25T00:42:21;8.60;85.20
69626;DHT22;56847;51.984;5.088;2023-04-25T00:44:50;8.60;85.20
69626;DHT22;56847;51.984;5.088;2023-04-25T00:47:19;8.60;85.30
69626;DHT22;56847;51.984;5.088;2023-04-25T00:49:46;8.60;85.20
69626;DHT22;56847;51.984;5.088;2023-04-25T00:52:15;8.50;85.20
69626;DHT22;56847;51.984;5.088;2023-04-25T00:54:42;8.60;85.20
69626;DHT22;56847;51.984;5.088;2023-04-25T00:57:09;8.50;85.30
69626;DHT22;56847;51.984;5.088;2023-04-25T00:59:38;8.50;85.20
69626;DHT22;56847;51.984;5.088;2023-04-25T01:02:05;8.50;85.20
69626;DHT22;56847;51.984;5.088;2023-04-25T01:04:32;8.50;85.10
69626;DHT22;56847;51.984;5.088;2023-04-25T01:06:59;8.50;85.30
69626;DHT22;56847;51.984;5.088;2023-04-25T01:09:27;8.50;85.10
69626;DHT22;56847;51.984;5.088;2023-04-25T01:11:57;8.40;85.10
69626;DHT22;56847;51.984;5.088;2023-04-25T01:14:24;8.40;85.10
69626;DHT22;56847;51.984;5.088;2023-04-25T01:16:51;8.40;85.10
69626;DHT22;56847;51.984;5.088;2023-04-25T01:19:20;8.40;85.10
69626;DHT22;56847;51.984;5.088;2023-04-25T01:21:48;8.40;85.00
69626;DHT22;56847;51.984;5.088;2023-04-25T01:24:15;8.30;84.70
69626;DHT22;56847;51.984;5.088;2023-04-25T01:26:45;8.30;84.60
69626;DHT22;56847;51.984;5.088;2023-04-25T01:29:21;8.20;84.40
69626;DHT22;56847;51.984;5.088;2023-04-25T01:31:48;8.10;84.50
69626;DHT22;56847;51.984;5.088;2023-04-25T01:34:15;8.10;84.60
69626;DHT22;56847;51.984;5.088;2023-04-25T01:36:49;8.10;84.80
69626;DHT22;56847;51.984;5.088;2023-04-25T01:39:18;8.00;84.90
69626;DHT22;56847;51.984;5.088;2023-04-25T01:41:48;8.00;84.90
69626;DHT22;56847;51.984;5.088;2023-04-25T01:44:16;8.00;85.00
69626;DHT22;56847;51.984;5.088;2023-04-25T01:46:44;8.00;85.00
69626;DHT22;56847;51.984;5.088;2023-04-25T01:49:12;8.00;85.00
69626;DHT22;56847;51.984;5.088;2023-04-25T01:51:40;8.00;85.00
69626;DHT22;56847;51.984;5.088;2023-04-25T01:54:08;8.00;84.90
69626;DHT22;56847;51.984;5.088;2023-04-25T01:56:38;7.90;84.90
69626;DHT22;56847;51.984;5.088;2023-04-25T01:59:10;7.90;85.00
69626;DHT22;56847;51.984;5.088;2023-04-25T02:02:03;7.90;85.20
69626;DHT22;56847;51.984;5.088;2023-04-25T02:04:34;7.90;85.40
69626;DHT22;56847;51.984;5.088;2023-04-25T02:07:03;8.00;85.40
69626;DHT22;56847;51.984;5.088;2023-04-25T02:09:43;8.00;85.30
69626;DHT22;56847;51.984;5.088;2023-04-25T02:12:13;8.00;85.20
69626;DHT22;56847;51.984;5.088;2023-04-25T02:14:54;8.00;85.20
69626;DHT22;56847;51.984;5.088;2023-04-25T02:17:41;7.90;85.10
69626;DHT22;56847;51.984;5.088;2023-04-25T02:20:09;7.90;85.10
69626;DHT22;56847;51.984;5.088;2023-04-25T02:22:38;7.90;85.10
69626;DHT22;56847;51.984;5.088;2023-04-25T02:25:06;7.90;85.10
69626;DHT22;56847;51.984;5.088;2023-04-25T02:27:37;7.90;85.10
69626;DHT22;56847;51.984;5.088;2023-04-25T02:30:07;7.90;85.10
69626;DHT22;56847;51.984;5.088;2023-04-25T02:32:37;7.80;85.10
69626;DHT22;56847;51.984;5.088;2023-04-25T02:35:05;7.80;85.10
69626;DHT22;56847;51.984;5.088;2023-04-25T02:37:34;7.80;85.10
69626;DHT22;56847;51.984;5.088;2023-04-25T02:40:02;7.80;85.30
69626;DHT22;56847;51.984;5.088;2023-04-25T02:42:31;7.80;85.10
69626;DHT22;56847;51.984;5.088;2023-04-25T02:44:58;7.80;85.10
69626;DHT22;56847;51.984;5.088;2023-04-25T02:47:26;7.80;85.10
69626;DHT22;56847;51.984;5.088;2023-04-25T02:49:53;7.80;85.00
69626;DHT22;56847;51.984;5.088;2023-04-25T02:52:20;7.80;85.10
69626;DHT22;56847;51.984;5.088;2023-04-25T02:54:55;7.80;85.10
69626;DHT22;56847;51.984;5.088;2023-04-25T02:57:23;7.80;85.20
69626;DHT22;56847;51.984;5.088;2023-04-25T02:59:50;7.80;85.40
69626;DHT22;56847;51.984;5.088;2023-04-25T03:02:17;7.80;85.70
69626;DHT22;56847;51.984;5.088;2023-04-25T03:04:44;7.80;85.80
69626;DHT22;56847;51.984;5.088;2023-04-25T03:07:21;7.90;85.80
69626;DHT22;56847;51.984;5.088;2023-04-25T03:09:51;7.90;85.70
69626;DHT22;56847;51.984;5.088;2023-04-25T03:12:19;8.00;85.70
69626;DHT22;56847;51.984;5.088;2023-04-25T03:14:46;8.00;85.80
69626;DHT22;56847;51.984;5.088;2023-04-25T03:17:16;8.00;86.00
69626;DHT22;56847;51.984;5.088;2023-04-25T03:19:43;8.00;85.90
69626;DHT22;56847;51.984;5.088;2023-04-25T03:22:18;8.10;85.90
69626;DHT22;56847;51.984;5.088;2023-04-25T03:24:45;8.10;85.60
69626;DHT22;56847;51.984;5.088;2023-04-25T03:27:13;8.00;85.40
69626;DHT22;56847;51.984;5.088;2023-04-25T03:29:41;8.00;85.40
69626;DHT22;56847;51.984;5.088;2023-04-25T03:32:09;7.90;85.50
69626;DHT22;56847;51.984;5.088;2023-04-25T03:34:37;7.90;85.70
69626;DHT22;56847;51.984;5.088;2023-04-25T03:37:04;7.90;85.90
69626;DHT22;56847;51.984;5.088;2023-04-25T03:39:36;8.00;85.80
69626;DHT22;56847;51.984;5.088;2023-04-25T03:42:06;8.00;85.00
69626;DHT22;56847;51.984;5.088;2023-04-25T03:44:34;7.90;84.70
69626;DHT22;56847;51.984;5.088;2023-04-25T03:47:01;7.90;85.10
69626;DHT22;56847;51.984;5.088;2023-04-25T03:49:29;7.90;85.70
69626;DHT22;56847;51.984;5.088;2023-04-25T03:52:00;7.90;86.00
69626;DHT22;56847;51.984;5.088;2023-04-25T03:54:32;8.00;86.00
69626;DHT22;56847;51.984;5.088;2023-04-25T03:57:05;8.00;86.20
69626;DHT22;56847;51.984;5.088;2023-04-25T03:59:36;8.00;86.40
69626;DHT22;56847;51.984;5.088;2023-04-25T04:02:03;8.10;86.60
69626;DHT22;56847;51.984;5.088;2023-04-25T04:04:32;8.10;86.60
69626;DHT22;56847;51.984;5.088;2023-04-25T04:07:02;8.20;86.70
69626;DHT22;56847;51.984;5.088;2023-04-25T04:09:33;8.20;86.60
69626;DHT22;56847;51.984;5.088;2023-04-25T04:12:04;8.20;86.70
69626;DHT22;56847;51.984;5.088;2023-04-25T04:14:32;8.20;86.20
69626;DHT22;56847;51.984;5.088;2023-04-25T04:17:01;8.30;86.40
69626;DHT22;56847;51.984;5.088;2023-04-25T04:19:28;8.30;86.40
69626;DHT22;56847;51.984;5.088;2023-04-25T04:22:07;8.30;86.30
69626;DHT22;56847;51.984;5.088;2023-04-25T04:24:37;8.30;86.20
69626;DHT22;56847;51.984;5.088;2023-04-25T04:27:06;8.30;86.30
69626;DHT22;56847;51.984;5.088;2023-04-25T04:29:44;8.30;86.10
69626;DHT22;56847;51.984;5.088;2023-04-25T04:32:22;8.30;85.80
69626;DHT22;56847;51.984;5.088;2023-04-25T04:34:50;8.30;85.90
69626;DHT22;56847;51.984;5.088;2023-04-25T04:37:23;8.30;85.90
69626;DHT22;56847;51.984;5.088;2023-04-25T04:39:51;8.30;85.80
69626;DHT22;56847;51.984;5.088;2023-04-25T04:42:38;8.30;85.30
69626;DHT22;56847;51.984;5.088;2023-04-25T04:45:15;8.20;85.10
69626;DHT22;56847;51.984;5.088;2023-04-25T04:48:15;8.20;85.20
69626;DHT22;56847;51.984;5.088;2023-04-25T04:50:45;8.20;85.40
69626;DHT22;56847;51.984;5.088;2023-04-25T04:53:27;8.20;85.80
69626;DHT22;56847;51.984;5.088;2023-04-25T04:56:12;8.20;86.00
69626;DHT22;56847;51.984;5.088;2023-04-25T04:59:07;8.20;86.30
69626;DHT22;56847;51.984;5.088;2023-04-25T05:01:47;8.20;86.30
69626;DHT22;56847;51.984;5.088;2023-04-25T05:04:14;8.20;86.40
69626;DHT22;56847;51.984;5.088;2023-04-25T05:07:13;8.30;86.30
69626;DHT22;56847;51.984;5.088;2023-04-25T05:09:46;8.40;86.20
69626;DHT22;56847;51.984;5.088;2023-04-25T05:12:32;8.40;86.50
69626;DHT22;56847;51.984;5.088;2023-04-25T05:18:34;8.50;86.30
69626;DHT22;56847;51.984;5.088;2023-04-25T05:21:24;8.60;86.50
69626;DHT22;56847;51.984;5.088;2023-04-25T05:24:18;8.60;86.50
69626;DHT22;56847;51.984;5.088;2023-04-25T05:27:17;8.70;86.50
69626;DHT22;56847;51.984;5.088;2023-04-25T05:29:58;8.80;86.60
69626;DHT22;56847;51.984;5.088;2023-04-25T05:32:30;8.80;86.70
69626;DHT22;56847;51.984;5.088;2023-04-25T05:35:06;8.90;86.20
69626;DHT22;56847;51.984;5.088;2023-04-25T05:37:44;8.90;86.20
69626;DHT22;56847;51.984;5.088;2023-04-25T05:40:14;9.00;86.40
69626;DHT22;56847;51.984;5.088;2023-04-25T05:42:44;9.00;86.30
69626;DHT22;56847;51.984;5.088;2023-04-25T05:45:40;9.00;86.20
69626;DHT22;56847;51.984;5.088;2023-04-25T05:48:25;9.00;86.00
69626;DHT22;56847;51.984;5.088;2023-04-25T05:51:18;9.10;85.70
69626;DHT22;56847;51.984;5.088;2023-04-25T05:54:14;9.10;85.30
69626;DHT22;56847;51.984;5.088;2023-04-25T05:56:41;9.10;86.30
69626;DHT22;56847;51.984;5.088;2023-04-25T05:59:08;9.20;85.90
69626;DHT22;56847;51.984;5.088;2023-04-25T06:01:36;9.30;85.50
69626;DHT22;56847;51.984;5.088;2023-04-25T06:04:03;9.30;85.90
69626;DHT22;56847;51.984;5.088;2023-04-25T06:06:32;9.40;86.10
69626;DHT22;56847;51.984;5.088;2023-04-25T06:08:59;9.50;85.90
69626;DHT22;56847;51.984;5.088;2023-04-25T06:11:26;9.50;85.70
69626;DHT22;56847;51.984;5.088;2023-04-25T06:13:53;9.60;86.00
69626;DHT22;56847;51.984;5.088;2023-04-25T06:16:21;9.70;85.80
69626;DHT22;56847;51.984;5.088;2023-04-25T06:18:48;9.70;85.30
69626;DHT22;56847;51.984;5.088;2023-04-25T06:21:15;9.80;84.60
69626;DHT22;56847;51.984;5.088;2023-04-25T06:23:43;9.80;85.20
69626;DHT22;56847;51.984;5.088;2023-04-25T06:26:12;10.00;85.50
69626;DHT22;56847;51.984;5.088;2023-04-25T06:28:42;10.10;85.10
69626;DHT22;56847;51.984;5.088;2023-04-25T06:31:09;10.10;84.80
69626;DHT22;56847;51.984;5.088;2023-04-25T06:33:39;10.20;83.20
69626;DHT22;56847;51.984;5.088;2023-04-25T06:36:06;10.30;84.20
69626;DHT22;56847;51.984;5.088;2023-04-25T06:38:33;10.40;84.40
69626;DHT22;56847;51.984;5.088;2023-04-25T06:41:01;10.50;83.70
69626;DHT22;56847;51.984;5.088;2023-04-25T06:43:32;10.50;82.80
69626;DHT22;56847;51.984;5.088;2023-04-25T06:46:23;10.60;83.00
69626;DHT22;56847;51.984;5.088;2023-04-25T06:48:50;10.60;82.70
69626;DHT22;56847;51.984;5.088;2023-04-25T06:51:19;10.70;83.10
69626;DHT22;56847;51.984;5.088;2023-04-25T06:53:49;10.70;82.70
69626;DHT22;56847;51.984;5.088;2023-04-25T06:56:25;10.70;81.90
69626;DHT22;56847;51.984;5.088;2023-04-25T06:59:00;10.70;82.80
69626;DHT22;56847;51.984;5.088;2023-04-25T07:01:36;10.80;81.50
69626;DHT22;56847;51.984;5.088;2023-04-25T07:04:08;10.80;81.90
69626;DHT22;56847;51.984;5.088;2023-04-25T07:06:40;10.90;82.40
69626;DHT22;56847;51.984;5.088;2023-04-25T07:09:10;10.90;82.30
69626;DHT22;56847;51.984;5.088;2023-04-25T07:11:38;11.10;82.20
69626;DHT22;56847;51.984;5.088;2023-04-25T07:14:06;11.20;80.90
69626;DHT22;56847;51.984;5.088;2023-04-25T07:16:33;11.30;80.60
69626;DHT22;56847;51.984;5.088;2023-04-25T07:19:04;11.30;81.30
69626;DHT22;56847;51.984;5.088;2023-04-25T07:21:31;11.30;80.70
69626;DHT22;56847;51.984;5.088;2023-04-25T07:24:01;11.30;81.70
69626;DHT22;56847;51.984;5.088;2023-04-25T07:26:33;11.30;80.90
69626;DHT22;56847;51.984;5.088;2023-04-25T07:29:26;11.30;81.30
69626;DHT22;56847;51.984;5.088;2023-04-25T07:31:53;11.40;80.80
69626;DHT22;56847;51.984;5.088;2023-04-25T07:34:21;11.50;82.10
69626;DHT22;56847;51.984;5.088;2023-04-25T07:36:48;11.50;82.00
69626;DHT22;56847;51.984;5.088;2023-04-25T07:39:15;11.50;80.90
69626;DHT22;56847;51.984;5.088;2023-04-25T07:41:45;11.50;81.30
69626;DHT22;56847;51.984;5.088;2023-04-25T07:44:17;11.50;81.10
69626;DHT22;56847;51.984;5.088;2023-04-25T07:46:45;11.50;80.80
69626;DHT22;56847;51.984;5.088;2023-04-25T07:49:11;11.50;81.20
69626;DHT22;56847;51.984;5.088;2023-04-25T07:51:41;11.40;80.90
69626;DHT22;56847;51.984;5.088;2023-04-25T07:54:14;11.20;78.70
69626;DHT22;56847;51.984;5.088;2023-04-25T07:56:46;11.10;78.90
69626;DHT22;56847;51.984;5.088;2023-04-25T07:59:20;11.00;79.00
69626;DHT22;56847;51.984;5.088;2023-04-25T08:01:48;10.90;79.70
69626;DHT22;56847;51.984;5.088;2023-04-25T08:04:18;11.00;80.80
69626;DHT22;56847;51.984;5.088;2023-04-25T08:07:07;11.10;81.10
69626;DHT22;56847;51.984;5.088;2023-04-25T08:09:47;11.10;80.50
69626;DHT22;56847;51.984;5.088;2023-04-25T08:12:22;11.00;80.90
69626;DHT22;56847;51.984;5.088;2023-04-25T08:14:49;11.00;80.80
69626;DHT22;56847;51.984;5.088;2023-04-25T08:17:17;10.90;80.70
69626;DHT22;56847;51.984;5.088;2023-04-25T08:19:44;10.80;78.70
69626;DHT22;56847;51.984;5.088;2023-04-25T08:22:23;10.80;80.50
69626;DHT22;56847;51.984;5.088;2023-04-25T08:24:57;10.90;78.60
69626;DHT22;56847;51.984;5.088;2023-04-25T08:27:24;11.00;78.80
69626;DHT22;56847;51.984;5.088;2023-04-25T08:29:51;11.20;79.00
69626;DHT22;56847;51.984;5.088;2023-04-25T08:32:19;11.30;79.10
69626;DHT22;56847;51.984;5.088;2023-04-25T08:35:08;11.40;79.40
69626;DHT22;56847;51.984;5.088;2023-04-25T08:37:35;11.60;77.80
69626;DHT22;56847;51.984;5.088;2023-04-25T08:40:13;11.70;75.90
69626;DHT22;56847;51.984;5.088;2023-04-25T08:43:18;11.80;78.00
69626;DHT22;56847;51.984;5.088;2023-04-25T08:45:46;12.00;75.70
69626;DHT22;56847;51.984;5.088;2023-04-25T08:48:32;12.20;77.60
69626;DHT22;56847;51.984;5.088;2023-04-25T08:51:02;12.30;75.20
69626;DHT22;56847;51.984;5.088;2023-04-25T08:53:32;12.40;71.70
69626;DHT22;56847;51.984;5.088;2023-04-25T08:56:03;12.40;71.00
69626;DHT22;56847;51.984;5.088;2023-04-25T08:58:35;12.40;66.60
69626;DHT22;56847;51.984;5.088;2023-04-25T09:01:03;12.50;68.80
69626;DHT22;56847;51.984;5.088;2023-04-25T09:03:41;12.70;67.90
69626;DHT22;56847;51.984;5.088;2023-04-25T09:06:10;13.10;69.70
69626;DHT22;56847;51.984;5.088;2023-04-25T09:08:38;13.60;71.90
69626;DHT22;56847;51.984;5.088;2023-04-25T09:11:07;13.80;67.10
69626;DHT22;56847;51.984;5.088;2023-04-25T09:13:37;13.80;67.10
69626;DHT22;56847;51.984;5.088;2023-04-25T09:16:20;13.80;66.90
69626;DHT22;56847;51.984;5.088;2023-04-25T09:19:24;13.50;65.40
69626;DHT22;56847;51.984;5.088;2023-04-25T09:22:10;13.20;62.80
69626;DHT22;56847;51.984;5.088;2023-04-25T09:24:41;13.00;63.90
69626;DHT22;56847;51.984;5.088;2023-04-25T09:27:12;12.80;64.10
69626;DHT22;56847;51.984;5.088;2023-04-25T09:29:40;12.70;63.50
69626;DHT22;56847;51.984;5.088;2023-04-25T09:34:51;12.70;64.80
69626;DHT22;56847;51.984;5.088;2023-04-25T09:37:27;12.90;63.20
69626;DHT22;56847;51.984;5.088;2023-04-25T09:40:27;13.10;63.70
69626;DHT22;56847;51.984;5.088;2023-04-25T09:43:25;13.20;62.10
69626;DHT22;56847;51.984;5.088;2023-04-25T09:45:54;13.00;60.00
69626;DHT22;56847;51.984;5.088;2023-04-25T09:48:28;12.80;59.80
69626;DHT22;56847;51.984;5.088;2023-04-25T09:51:10;12.50;60.30
69626;DHT22;56847;51.984;5.088;2023-04-25T09:53:48;12.20;60.70
69626;DHT22;56847;51.984;5.088;2023-04-25T09:56:36;12.00;61.30
69626;DHT22;56847;51.984;5.088;2023-04-25T09:59:07;12.00;61.10
69626;DHT22;56847;51.984;5.088;2023-04-25T10:01:40;12.20;62.10
69626;DHT22;56847;51.984;5.088;2023-04-25T10:04:21;12.60;61.50
69626;DHT22;56847;51.984;5.088;2023-04-25T10:07:11;12.80;59.30
69626;DHT22;56847;51.984;5.088;2023-04-25T10:09:39;12.80;59.60
69626;DHT22;56847;51.984;5.088;2023-04-25T10:12:07;12.70;59.70
69626;DHT22;56847;51.984;5.088;2023-04-25T10:14:35;12.50;58.70
69626;DHT22;56847;51.984;5.088;2023-04-25T10:17:02;12.40;57.70
69626;DHT22;56847;51.984;5.088;2023-04-25T10:19:30;12.30;57.30
69626;DHT22;56847;51.984;5.088;2023-04-25T10:22:17;12.20;58.30
69626;DHT22;56847;51.984;5.088;2023-04-25T10:24:46;12.30;57.80
69626;DHT22;56847;51.984;5.088;2023-04-25T10:27:13;12.40;57.50
69626;DHT22;56847;51.984;5.088;2023-04-25T10:29:41;12.50;57.60
69626;DHT22;56847;51.984;5.088;2023-04-25T10:32:10;12.60;56.50
69626;DHT22;56847;51.984;5.088;2023-04-25T10:34:42;12.70;56.60
69626;DHT22;56847;51.984;5.088;2023-04-25T10:37:13;12.80;55.10
69626;DHT22;56847;51.984;5.088;2023-04-25T10:39:41;12.90;55.80
69626;DHT22;56847;51.984;5.088;2023-04-25T10:42:12;13.10;55.90
69626;DHT22;56847;51.984;5.088;2023-04-25T10:44:38;13.20;54.70
69626;DHT22;56847;51.984;5.088;2023-04-25T10:47:07;13.30;54.50
69626;DHT22;56847;51.984;5.088;2023-04-25T10:49:38;13.20;54.70
69626;DHT22;56847;51.984;5.088;2023-04-25T10:52:25;13.30;55.20
69626;DHT22;56847;51.984;5.088;2023-04-25T10:54:55;13.30;55.80
69626;DHT22;56847;51.984;5.088;2023-04-25T10:57:43;13.30;55.50
69626;DHT22;56847;51.984;5.088;2023-04-25T11:00:17;13.30;55.20
69626;DHT22;56847;51.984;5.088;2023-04-25T11:02:57;13.40;55.90
69626;DHT22;56847;51.984;5.088;2023-04-25T11:05:35;13.50;56.30
69626;DHT22;56847;51.984;5.088;2023-04-25T11:08:44;13.60;55.20
69626;DHT22;56847;51.984;5.088;2023-04-25T11:11:18;13.70;55.40
69626;DHT22;56847;51.984;5.088;2023-04-25T11:13:49;13.80;54.60
69626;DHT22;56847;51.984;5.088;2023-04-25T11:16:19;14.20;54.80
69626;DHT22;56847;51.984;5.088;2023-04-25T11:18:57;14.60;56.00
69626;DHT22;56847;51.984;5.088;2023-04-25T11:21:25;14.80;52.00
69626;DHT22;56847;51.984;5.088;2023-04-25T11:23:56;14.40;51.60
69626;DHT22;56847;51.984;5.088;2023-04-25T11:26:24;13.70;51.70
69626;DHT22;56847;51.984;5.088;2023-04-25T11:28:57;13.20;53.50
69626;DHT22;56847;51.984;5.088;2023-04-25T11:31:25;12.80;55.20
69626;DHT22;56847;51.984;5.088;2023-04-25T11:33:59;12.60;55.40
69626;DHT22;56847;51.984;5.088;2023-04-25T11:36:27;12.20;56.10
69626;DHT22;56847;51.984;5.088;2023-04-25T11:38:54;12.00;57.60
69626;DHT22;56847;51.984;5.088;2023-04-25T11:41:21;11.90;57.90
69626;DHT22;56847;51.984;5.088;2023-04-25T11:43:49;11.90;58.80
69626;DHT22;56847;51.984;5.088;2023-04-25T11:46:18;11.90;58.40
69626;DHT22;56847;51.984;5.088;2023-04-25T11:48:47;12.10;59.30
69626;DHT22;56847;51.984;5.088;2023-04-25T11:51:15;12.50;57.90
69626;DHT22;56847;51.984;5.088;2023-04-25T11:53:44;12.70;56.10
69626;DHT22;56847;51.984;5.088;2023-04-25T11:56:11;12.90;53.50
69626;DHT22;56847;51.984;5.088;2023-04-25T11:59:14;13.10;53.00
69626;DHT22;56847;51.984;5.088;2023-04-25T12:01:48;13.30;53.70
69626;DHT22;56847;51.984;5.088;2023-04-25T12:04:17;13.50;52.80
69626;DHT22;56847;51.984;5.088;2023-04-25T12:06:45;13.60;51.80
69626;DHT22;56847;51.984;5.088;2023-04-25T12:09:17;13.70;52.00
69626;DHT22;56847;51.984;5.088;2023-04-25T12:11:47;13.80;51.20
69626;DHT22;56847;51.984;5.088;2023-04-25T12:16:50;14.50;53.10
69626;DHT22;56847;51.984;5.088;2023-04-25T12:19:20;14.50;52.70
69626;DHT22;56847;51.984;5.088;2023-04-25T12:21:50;14.40;52.60
69626;DHT22;56847;51.984;5.088;2023-04-25T12:24:26;14.30;54.10
69626;DHT22;56847;51.984;5.088;2023-04-25T12:27:03;14.20;55.30
69626;DHT22;56847;51.984;5.088;2023-04-25T12:29:35;14.10;55.60
69626;DHT22;56847;51.984;5.088;2023-04-25T12:32:16;14.00;56.00
69626;DHT22;56847;51.984;5.088;2023-04-25T12:34:43;14.00;56.60
69626;DHT22;56847;51.984;5.088;2023-04-25T12:37:10;14.00;57.40
69626;DHT22;56847;51.984;5.088;2023-04-25T12:39:38;14.20;57.70
69626;DHT22;56847;51.984;5.088;2023-04-25T12:42:05;14.30;57.80
69626;DHT22;56847;51.984;5.088;2023-04-25T12:44:35;14.40;57.60
69626;DHT22;56847;51.984;5.088;2023-04-25T12:47:04;14.60;57.20
69626;DHT22;56847;51.984;5.088;2023-04-25T12:49:32;14.90;56.20
69626;DHT22;56847;51.984;5.088;2023-04-25T12:51:59;15.30;55.20
69626;DHT22;56847;51.984;5.088;2023-04-25T12:54:30;15.60;55.10
69626;DHT22;56847;51.984;5.088;2023-04-25T12:56:57;15.80;51.90
69626;DHT22;56847;51.984;5.088;2023-04-25T12:59:24;15.50;48.20
69626;DHT22;56847;51.984;5.088;2023-04-25T13:01:51;15.00;46.90
69626;DHT22;56847;51.984;5.088;2023-04-25T13:04:19;14.60;47.60
69626;DHT22;56847;51.984;5.088;2023-04-25T13:06:48;14.70;49.50
69626;DHT22;56847;51.984;5.088;2023-04-25T13:09:18;15.00;48.60
69626;DHT22;56847;51.984;5.088;2023-04-25T13:11:45;15.10;49.50
69626;DHT22;56847;51.984;5.088;2023-04-25T13:14:12;15.00;47.60
69626;DHT22;56847;51.984;5.088;2023-04-25T13:16:39;14.80;47.80
69626;DHT22;56847;51.984;5.088;2023-04-25T13:19:06;14.60;48.70
69626;DHT22;56847;51.984;5.088;2023-04-25T13:21:35;14.50;48.70
69626;DHT22;56847;51.984;5.088;2023-04-25T13:24:02;14.40;47.30
69626;DHT22;56847;51.984;5.088;2023-04-25T13:26:31;14.50;47.70
69626;DHT22;56847;51.984;5.088;2023-04-25T13:28:58;14.50;47.60
69626;DHT22;56847;51.984;5.088;2023-04-25T13:31:27;14.20;47.50
69626;DHT22;56847;51.984;5.088;2023-04-25T13:33:57;14.10;46.80
69626;DHT22;56847;51.984;5.088;2023-04-25T13:36:24;13.80;46.20
69626;DHT22;56847;51.984;5.088;2023-04-25T13:38:59;13.70;46.00
69626;DHT22;56847;51.984;5.088;2023-04-25T13:41:32;13.70;46.30
69626;DHT22;56847;51.984;5.088;2023-04-25T13:43:59;13.70;46.60
69626;DHT22;56847;51.984;5.088;2023-04-25T13:46:27;13.80;46.20
69626;DHT22;56847;51.984;5.088;2023-04-25T13:49:11;13.80;47.20
69626;DHT22;56847;51.984;5.088;2023-04-25T13:51:39;14.10;48.80
69626;DHT22;56847;51.984;5.088;2023-04-25T13:54:14;14.50;49.10
69626;DHT22;56847;51.984;5.088;2023-04-25T13:56:45;14.80;48.00
69626;DHT22;56847;51.984;5.088;2023-04-25T13:59:12;14.90;46.70
69626;DHT22;56847;51.984;5.088;2023-04-25T14:01:41;15.00;46.40
69626;DHT22;56847;51.984;5.088;2023-04-25T14:04:09;15.00;47.00
69626;DHT22;56847;51.984;5.088;2023-04-25T14:06:36;14.90;47.50
69626;DHT22;56847;51.984;5.088;2023-04-25T14:09:04;14.80;47.80
69626;DHT22;56847;51.984;5.088;2023-04-25T14:11:31;14.80;47.40
69626;DHT22;56847;51.984;5.088;2023-04-25T14:13:58;14.60;47.60
69626;DHT22;56847;51.984;5.088;2023-04-25T14:16:25;14.50;48.30
69626;DHT22;56847;51.984;5.088;2023-04-25T14:18:53;14.50;48.30
69626;DHT22;56847;51.984;5.088;2023-04-25T14:21:21;14.50;48.40
69626;DHT22;56847;51.984;5.088;2023-04-25T14:23:48;14.30;48.00
69626;DHT22;56847;51.984;5.088;2023-04-25T14:26:15;14.10;48.30
69626;DHT22;56847;51.984;5.088;2023-04-25T14:28:43;14.00;49.50
69626;DHT22;56847;51.984;5.088;2023-04-25T14:31:13;13.90;49.20
69626;DHT22;56847;51.984;5.088;2023-04-25T14:33:40;13.80;49.80
69626;DHT22;56847;51.984;5.088;2023-04-25T14:36:09;13.80;49.90
69626;DHT22;56847;51.984;5.088;2023-04-25T14:38:38;13.80;49.70
69626;DHT22;56847;51.984;5.088;2023-04-25T14:41:05;13.80;50.00
69626;DHT22;56847;51.984;5.088;2023-04-25T14:43:32;13.90;48.70
69626;DHT22;56847;51.984;5.088;2023-04-25T14:46:01;14.00;48.60
69626;DHT22;56847;51.984;5.088;2023-04-25T14:48:29;14.20;48.90
69626;DHT22;56847;51.984;5.088;2023-04-25T14:50:57;14.50;49.20
69626;DHT22;56847;51.984;5.088;2023-04-25T14:53:24;14.80;48.00
69626;DHT22;56847;51.984;5.088;2023-04-25T14:55:51;14.80;46.70
69626;DHT22;56847;51.984;5.088;2023-04-25T14:58:18;14.80;46.70
69626;DHT22;56847;51.984;5.088;2023-04-25T15:00:47;15.00;46.90
69626;DHT22;56847;51.984;5.088;2023-04-25T15:03:14;15.10;46.70
69626;DHT22;56847;51.984;5.088;2023-04-25T15:05:43;15.10;44.80
69626;DHT22;56847;51.984;5.088;2023-04-25T15:08:10;15.00;45.30
69626;DHT22;56847;51.984;5.088;2023-04-25T15:10:40;15.00;46.00
69626;DHT22;56847;51.984;5.088;2023-04-25T15:13:07;15.00;45.50
69626;DHT22;56847;51.984;5.088;2023-04-25T15:15:34;14.80;44.10
69626;DHT22;56847;51.984;5.088;2023-04-25T15:18:01;14.40;44.80
69626;DHT22;56847;51.984;5.088;2023-04-25T15:20:28;14.10;45.70
69626;DHT22;56847;51.984;5.088;2023-04-25T15:22:57;13.90;46.50
69626;DHT22;56847;51.984;5.088;2023-04-25T15:25:24;13.70;47.30
69626;DHT22;56847;51.984;5.088;2023-04-25T15:27:51;13.60;47.50
69626;DHT22;56847;51.984;5.088;2023-04-25T15:30:20;13.50;47.90
69626;DHT22;56847;51.984;5.088;2023-04-25T15:32:48;13.60;48.50
69626;DHT22;56847;51.984;5.088;2023-04-25T15:35:15;13.90;49.30
69626;DHT22;56847;51.984;5.088;2023-04-25T15:37:42;14.30;48.70
69626;DHT22;56847;51.984;5.088;2023-04-25T15:40:15;14.50;46.20
69626;DHT22;56847;51.984;5.088;2023-04-25T15:42:44;14.60;46.70
69626;DHT22;56847;51.984;5.088;2023-04-25T15:45:14;14.70;45.20
69626;DHT22;56847;51.984;5.088;2023-04-25T15:47:44;14.80;46.30
69626;DHT22;56847;51.984;5.088;2023-04-25T15:50:12;15.10;46.00
69626;DHT22;56847;51.984;5.088;2023-04-25T15:52:39;15.20;44.50
69626;DHT22;56847;51.984;5.088;2023-04-25T15:55:11;15.30;43.60
69626;DHT22;56847;51.984;5.088;2023-04-25T15:57:42;15.40;44.90
69626;DHT22;56847;51.984;5.088;2023-04-25T16:00:10;15.50;45.40
69626;DHT22;56847;51.984;5.088;2023-04-25T16:02:44;15.40;45.90
69626;DHT22;56847;51.984;5.088;2023-04-25T16:05:11;15.40;46.70
69626;DHT22;56847;51.984;5.088;2023-04-25T16:07:41;15.50;47.60
69626;DHT22;56847;51.984;5.088;2023-04-25T16:10:10;15.50;46.80
69626;DHT22;56847;51.984;5.088;2023-04-25T16:12:40;15.40;47.10